Time;durP1;ratioP1;P1;durP2;ratioP2;P2;SDS_P1;SDS_P2;PMS_P1;PMS_P2;Temp;Humidity;BMP_temperature;BMP_pressure;BME280_temperature;BME280_humidity;BME280_pressure;Samples;Min_cycle;Max_cycle;Signal;HPM_P1;HPM_P2
2024/03/05 00:05:03;;;;;;;15.93;8.60;;;22.30;47.90;;;;;;10360026;28;20050;-48
2024/03/05 00:10:05;;;;;;;17.92;8.15;;;22.00;48.60;;;;;;10354007;28;20050;-47
2024/03/05 00:15:07;;;;;;;15.95;7.95;;;21.90;49.20;;;;;;10349584;28;20042;-50
2024/03/05 00:20:18;;;;;;;16.50;7.82;;;21.90;48.90;;;;;;10347841;28;20073;-48
2024/03/05 00:25:19;;;;;;;14.43;8.07;;;22.10;48.60;;;;;;10354205;28;20049;-48
2024/03/05 00:30:22;;;;;;;13.63;7.43;;;22.00;48.50;;;;;;10355551;28;20129;-49
2024/03/05 00:35:25;;;;;;;15.25;7.75;;;22.00;48.60;;;;;;10355838;28;20042;-47
2024/03/05 00:40:27;;;;;;;12.80;7.47;;;21.90;48.60;;;;;;10359803;28;20493;-51
2024/03/05 00:45:30;;;;;;;10.75;7.38;;;22.00;48.60;;;;;;10356978;28;20069;-48
2024/03/05 00:50:33;;;;;;;14.95;7.55;;;22.00;48.60;;;;;;10354069;28;20050;-50
2024/03/05 00:55:37;;;;;;;12.93;7.28;;;22.00;48.70;;;;;;10349367;28;20399;-52
2024/03/05 01:00:38;;;;;;;13.23;7.05;;;22.00;48.60;;;;;;10354327;28;20099;-49
2024/03/05 01:05:42;;;;;;;9.20;7.10;;;21.80;48.80;;;;;;10351476;28;20582;-48
2024/03/05 01:10:45;;;;;;;14.73;7.00;;;21.80;49.00;;;;;;10352564;28;20104;-47
2024/03/05 01:15:46;;;;;;;13.23;7.07;;;21.70;49.40;;;;;;10353863;28;20033;-49
2024/03/05 01:20:49;;;;;;;10.20;7.00;;;21.40;50.30;;;;;;10360068;28;20028;-48
2024/03/05 01:25:51;;;;;;;11.65;6.80;;;21.50;50.10;;;;;;10360623;28;20250;-50
2024/03/05 01:30:53;;;;;;;12.70;6.93;;;21.70;49.60;;;;;;10359906;28;20065;-48
2024/03/05 01:35:56;;;;;;;10.02;6.88;;;21.90;49.20;;;;;;10355360;28;20133;-50
2024/03/05 01:40:58;;;;;;;12.45;6.53;;;21.80;49.20;;;;;;10366676;28;20172;-53
2024/03/05 01:45:59;;;;;;;16.13;6.97;;;21.70;49.50;;;;;;10366035;28;20050;-48
2024/03/05 01:51:02;;;;;;;9.88;6.30;;;21.70;49.40;;;;;;10363893;28;20145;-48
2024/03/05 01:56:04;;;;;;;13.35;7.13;;;21.70;49.70;;;;;;10365830;28;20125;-52
2024/03/05 02:01:06;;;;;;;11.07;6.75;;;21.70;49.60;;;;;;10360683;28;20112;-49
2024/03/05 02:06:10;;;;;;;10.40;5.97;;;21.70;49.60;;;;;;10359306;28;20050;-48
2024/03/05 02:11:12;;;;;;;9.73;6.70;;;21.60;49.80;;;;;;10354682;28;20042;-48
2024/03/05 02:16:14;;;;;;;9.55;5.97;;;21.50;50.10;;;;;;10356569;28;20064;-47
2024/03/05 02:21:20;;;;;;;13.70;7.40;;;21.30;50.70;;;;;;10359074;28;20157;-51
2024/03/05 02:26:22;;;;;;;12.63;6.55;;;21.30;50.90;;;;;;10352835;28;20520;-47
2024/03/05 02:31:24;;;;;;;10.13;6.20;;;21.30;50.80;;;;;;10359512;28;20124;-46
2024/03/05 02:36:27;;;;;;;10.85;6.20;;;21.20;51.30;;;;;;10359417;28;20483;-47
2024/03/05 02:41:28;;;;;;;10.15;6.30;;;21.20;51.20;;;;;;10361102;28;20043;-49
2024/03/05 02:46:30;;;;;;;11.55;6.15;;;21.10;51.70;;;;;;10360350;28;20197;-47
2024/03/05 02:51:33;;;;;;;9.88;5.65;;;21.30;51.00;;;;;;10363458;28;20081;-48
2024/03/05 02:56:36;;;;;;;10.40;5.60;;;21.40;50.60;;;;;;10362454;28;20050;-48
2024/03/05 03:01:37;;;;;;;9.13;6.10;;;21.10;51.10;;;;;;10358629;28;20136;-51
2024/03/05 03:06:41;;;;;;;10.40;6.22;;;21.20;51.20;;;;;;10359381;28;20129;-48
2024/03/05 03:11:42;;;;;;;7.25;5.65;;;21.10;51.10;;;;;;10360804;28;20059;-48
2024/03/05 03:16:44;;;;;;;7.85;5.32;;;21.10;51.10;;;;;;10356451;28;20136;-51
2024/03/05 03:21:47;;;;;;;8.32;5.68;;;21.10;51.60;;;;;;10355825;28;20404;-47
2024/03/05 03:26:51;;;;;;;9.52;5.85;;;20.90;53.20;;;;;;10355509;28;20053;-48
2024/03/05 03:31:53;;;;;;;9.88;5.55;;;21.10;54.80;;;;;;10353771;28;20531;-49
2024/03/05 03:36:56;;;;;;;7.30;5.07;;;21.00;56.10;;;;;;10355812;28;20548;-47
2024/03/05 03:41:58;;;;;;;10.85;5.68;;;21.10;55.90;;;;;;10351231;28;20100;-47
2024/03/05 03:46:59;;;;;;;7.45;5.55;;;21.00;55.20;;;;;;10356551;28;20136;-51
2024/03/05 03:52:02;;;;;;;6.93;5.18;;;21.10;54.90;;;;;;10354742;28;20069;-48
2024/03/05 03:57:05;;;;;;;7.18;5.07;;;21.10;55.10;;;;;;10359891;28;20128;-50
2024/03/05 04:02:07;;;;;;;8.45;5.20;;;20.90;55.00;;;;;;10357278;28;20042;-47
2024/03/05 04:07:10;;;;;;;8.55;4.90;;;20.70;53.90;;;;;;10361282;28;20132;-48
2024/03/05 04:12:12;;;;;;;7.32;5.00;;;20.40;52.40;;;;;;10360782;28;20530;-48
2024/03/05 04:17:15;;;;;;;7.07;4.72;;;20.40;53.30;;;;;;10352210;28;20460;-47
2024/03/05 04:22:18;;;;;;;7.55;5.32;;;20.60;53.40;;;;;;10349945;28;20037;-49
2024/03/05 04:27:20;;;;;;;8.00;4.90;;;20.90;53.20;;;;;;10353740;28;20539;-48
2024/03/05 04:32:22;;;;;;;7.50;4.93;;;20.90;53.50;;;;;;10354254;28;20042;-48
2024/03/05 04:37:25;;;;;;;12.00;5.57;;;21.20;53.10;;;;;;10355150;28;20038;-53
2024/03/05 04:42:27;;;;;;;13.10;5.00;;;21.10;53.30;;;;;;10352967;28;20045;-50
2024/03/05 04:47:29;;;;;;;10.93;5.00;;;21.10;53.40;;;;;;10349713;28;20052;-50
2024/03/05 04:52:33;;;;;;;9.20;4.80;;;21.30;53.90;;;;;;10349386;28;20049;-50
2024/03/05 04:57:35;;;;;;;6.80;4.40;;;21.50;52.50;;;;;;10346285;28;20049;-50
2024/03/05 05:02:36;;;;;;;11.30;4.82;;;21.60;52.40;;;;;;10343252;28;20045;-52
2024/03/05 05:07:40;;;;;;;9.13;4.45;;;21.40;52.60;;;;;;10350717;28;20579;-49
2024/03/05 05:12:41;;;;;;;7.00;4.55;;;21.40;52.90;;;;;;10352721;28;20052;-49
2024/03/05 05:17:44;;;;;;;7.25;4.80;;;21.30;53.50;;;;;;10358459;28;20557;-48
2024/03/05 05:22:47;;;;;;;6.75;4.80;;;21.30;53.80;;;;;;10357945;28;20420;-52
2024/03/05 05:27:49;;;;;;;8.90;4.40;;;21.30;54.00;;;;;;10352118;28;20133;-48
2024/03/05 05:32:50;;;;;;;6.55;4.15;;;21.30;54.10;;;;;;10349170;28;20129;-49
2024/03/05 05:37:53;;;;;;;5.68;4.25;;;21.30;54.40;;;;;;10344858;28;20046;-54
2024/03/05 05:42:55;;;;;;;6.45;4.07;;;21.40;54.30;;;;;;10351049;28;20161;-51
2024/03/05 05:47:58;;;;;;;6.00;4.03;;;21.50;54.30;;;;;;10352962;28;20042;-53
2024/03/05 05:53:00;;;;;;;5.25;4.32;;;21.50;54.30;;;;;;10351224;28;20520;-50
2024/03/05 05:58:04;;;;;;;6.13;3.78;;;21.60;55.00;;;;;;10348412;28;20041;-49
2024/03/05 06:03:07;;;;;;;7.40;4.00;;;21.60;54.50;;;;;;10345516;28;20587;-50
2024/03/05 06:08:11;;;;;;;5.03;3.80;;;21.70;54.40;;;;;;10350691;28;20043;-52
2024/03/05 06:13:13;;;;;;;8.38;3.92;;;21.80;54.50;;;;;;10351579;28;20048;-49
2024/03/05 06:18:15;;;;;;;10.77;3.88;;;21.80;54.40;;;;;;10349344;28;20049;-50
2024/03/05 06:23:18;;;;;;;7.20;3.35;;;22.00;53.00;;;;;;10355157;28;20567;-48
2024/03/05 06:28:20;;;;;;;16.25;3.85;;;22.10;51.50;;;;;;10361740;28;20307;-49
2024/03/05 06:33:22;;;;;;;17.92;4.55;;;22.10;52.00;;;;;;10362972;28;20068;-50
2024/03/05 06:38:25;;;;;;;26.80;5.30;;;22.20;51.50;;;;;;10362378;28;20038;-46
2024/03/05 06:43:32;;;;;;;14.35;5.35;;;22.30;51.00;;;;;;10363019;28;20073;-47
2024/03/05 06:48:37;;;;;;;18.95;5.75;;;22.20;51.30;;;;;;10358675;28;20077;-53
2024/03/05 06:59:00;;;;;;;13.23;5.40;;;22.00;50.60;;;;;;10360019;28;20045;-50
2024/03/05 07:04:05;;;;;;;13.40;5.13;;;22.00;50.90;;;;;;10361936;28;20054;-46
2024/03/05 07:09:11;;;;;;;13.27;4.68;;;22.10;51.10;;;;;;10359597;28;20050;-48
2024/03/05 07:14:13;;;;;;;11.73;4.68;;;22.10;50.60;;;;;;10355798;28;20049;-50
2024/03/05 07:19:15;;;;;;;13.13;4.53;;;22.00;50.10;;;;;;10347185;28;20104;-52
2024/03/05 07:24:18;;;;;;;16.40;5.20;;;22.10;50.00;;;;;;10344469;28;20657;-48
2024/03/05 07:29:19;;;;;;;11.55;4.78;;;22.20;49.70;;;;;;10349403;28;20046;-48
2024/03/05 07:34:21;;;;;;;12.75;4.20;;;22.20;49.40;;;;;;10352888;28;20133;-48
2024/03/05 07:39:24;;;;;;;12.15;4.22;;;22.10;49.40;;;;;;10356856;28;20137;-49
2024/03/05 07:44:26;;;;;;;6.35;3.80;;;22.10;49.60;;;;;;10361678;28;20045;-52
2024/03/05 07:49:28;;;;;;;6.93;3.70;;;22.00;49.40;;;;;;10362634;28;20076;-50
2024/03/05 07:54:31;;;;;;;8.02;4.03;;;22.00;49.20;;;;;;10352637;28;20126;-46
2024/03/05 07:59:33;;;;;;;9.05;3.70;;;22.00;49.20;;;;;;10352665;28;20148;-54
2024/03/05 08:04:34;;;;;;;9.60;3.65;;;21.80;49.30;;;;;;10358797;28;20132;-48
2024/03/05 08:09:37;;;;;;;7.97;3.75;;;21.80;49.30;;;;;;10355377;28;20148;-51
2024/03/05 08:14:39;;;;;;;9.02;3.50;;;21.90;48.90;;;;;;10355880;28;20133;-46
2024/03/05 08:19:41;;;;;;;7.45;3.53;;;21.80;49.10;;;;;;10355939;28;20412;-46
2024/03/05 08:24:44;;;;;;;5.28;3.25;;;21.90;48.60;;;;;;10355874;28;20050;-48
2024/03/05 08:29:49;;;;;;;6.50;3.50;;;21.90;48.60;;;;;;10352716;28;20863;-50
2024/03/05 08:34:51;;;;;;;5.07;3.60;;;21.90;48.30;;;;;;10351637;28;20058;-52
2024/03/05 08:39:54;;;;;;;5.20;3.00;;;21.90;48.10;;;;;;10353374;28;20064;-47
2024/03/05 08:44:56;;;;;;;6.00;2.85;;;21.90;48.00;;;;;;10353521;28;20487;-46
2024/03/05 08:49:58;;;;;;;5.50;3.22;;;21.90;47.80;;;;;;10359723;28;20133;-46
2024/03/05 08:55:01;;;;;;;5.30;2.97;;;22.00;47.50;;;;;;10361108;28;20157;-47
2024/03/05 09:00:02;;;;;;;6.32;3.00;;;21.90;47.50;;;;;;10357406;28;20061;-46
2024/03/05 09:05:04;;;;;;;6.05;3.35;;;21.80;47.60;;;;;;10355034;28;20045;-49
2024/03/05 09:10:09;;;;;;;4.07;2.67;;;21.90;47.30;;;;;;10353709;28;20118;-46
2024/03/05 09:15:12;;;;;;;6.55;2.85;;;21.90;47.20;;;;;;10355429;28;20050;-48
2024/03/05 09:20:16;;;;;;;5.35;2.92;;;21.90;47.10;;;;;;10355094;28;20524;-48
2024/03/05 09:25:19;;;;;;;4.15;2.58;;;21.90;47.10;;;;;;10353678;28;20049;-48
2024/03/05 09:30:21;;;;;;;5.13;3.00;;;21.90;46.70;;;;;;10351873;28;20144;-47
2024/03/05 09:35:24;;;;;;;5.00;2.72;;;21.70;47.10;;;;;;10353925;28;20487;-46
2024/03/05 09:40:27;;;;;;;5.80;2.70;;;21.70;47.10;;;;;;10353097;28;20039;-48
2024/03/05 09:45:30;;;;;;;4.85;2.60;;;21.60;47.30;;;;;;10365606;28;20049;-48
2024/03/05 09:50:33;;;;;;;8.15;2.85;;;21.70;47.20;;;;;;10365418;28;20058;-47
2024/03/05 09:55:36;;;;;;;4.22;2.70;;;21.80;47.30;;;;;;10359861;28;20047;-52
2024/03/05 10:00:38;;;;;;;4.15;2.55;;;21.90;47.30;;;;;;10362405;28;20045;-53
2024/03/05 10:05:41;;;;;;;2.78;2.35;;;21.80;47.10;;;;;;10368380;28;20412;-52
2024/03/05 10:10:44;;;;;;;5.68;2.70;;;21.80;46.80;;;;;;10364338;28;20046;-48
2024/03/05 10:15:47;;;;;;;3.13;2.33;;;21.80;46.50;;;;;;10361315;28;20048;-51
2024/03/05 10:20:49;;;;;;;3.22;2.40;;;21.80;46.50;;;;;;10360636;28;20053;-48
2024/03/05 10:25:52;;;;;;;3.63;3.10;;;21.90;46.30;;;;;;10364443;28;20181;-49
2024/03/05 10:30:59;;;;;;;4.13;2.65;;;21.90;46.20;;;;;;10359082;28;20054;-49
2024/03/05 10:36:00;;;;;;;3.75;2.17;;;21.90;46.00;;;;;;10357843;28;20153;-47
2024/03/05 10:41:07;;;;;;;4.18;2.65;;;21.90;45.80;;;;;;10351562;28;20181;-51
2024/03/05 10:46:08;;;;;;;4.22;2.40;;;21.80;45.90;;;;;;10347413;28;20054;-48
2024/03/05 10:51:10;;;;;;;3.65;2.35;;;21.80;45.90;;;;;;10350247;28;20125;-49
2024/03/05 10:56:13;;;;;;;3.85;2.47;;;21.70;46.00;;;;;;10360065;28;20503;-46
2024/03/05 11:01:17;;;;;;;2.70;2.10;;;21.80;45.80;;;;;;10362306;28;20061;-47
2024/03/05 11:06:20;;;;;;;4.15;2.20;;;21.80;45.80;;;;;;10361606;28;20133;-47
2024/03/05 11:11:23;;;;;;;3.38;2.28;;;21.80;45.70;;;;;;10358818;28;20054;-47
2024/03/05 11:16:26;;;;;;;3.50;2.05;;;21.90;45.40;;;;;;10370814;28;20173;-51
2024/03/05 11:21:28;;;;;;;3.05;2.30;;;22.00;45.40;;;;;;10360052;28;20045;-50
2024/03/05 11:26:32;;;;;;;4.22;2.45;;;21.90;45.50;;;;;;10360645;28;20046;-49
2024/03/05 11:31:34;;;;;;;4.43;1.90;;;21.90;45.20;;;;;;10359889;28;20046;-49
2024/03/05 11:36:36;;;;;;;2.75;2.40;;;22.10;44.80;;;;;;10363755;28;20648;-47
2024/03/05 11:41:41;;;;;;;2.58;2.05;;;22.00;44.70;;;;;;10359241;28;20750;-47
2024/03/05 11:46:47;;;;;;;2.30;2.10;;;22.00;44.70;;;;;;10360264;28;20042;-48
2024/03/05 11:51:49;;;;;;;2.30;2.10;;;22.00;44.70;;;;;;10351481;28;20121;-52
2024/03/05 11:56:57;;;;;;;3.80;2.33;;;22.00;44.60;;;;;;10348790;28;20132;-47
2024/03/05 12:01:59;;;;;;;5.03;2.85;;;22.10;40.90;;;;;;10351646;28;20132;-48
2024/03/05 12:07:06;;;;;;;3.80;2.53;;;21.70;38.40;;;;;;10355940;28;20050;-48
2024/03/05 12:12:10;;;;;;;2.47;2.22;;;21.60;39.20;;;;;;10355279;28;20396;-48
2024/03/05 12:17:14;;;;;;;4.93;2.20;;;21.80;39.80;;;;;;10356724;28;20038;-51
2024/03/05 12:22:17;;;;;;;4.20;2.33;;;22.00;39.80;;;;;;10360692;28;20643;-50
2024/03/05 12:27:20;;;;;;;5.50;2.20;;;22.10;40.30;;;;;;10357484;28;20129;-50
2024/03/05 12:32:22;;;;;;;4.90;2.10;;;22.10;40.70;;;;;;10360010;28;20534;-49
2024/03/05 12:37:26;;;;;;;3.05;2.42;;;22.00;41.20;;;;;;10356168;28;20050;-49
2024/03/05 12:42:29;;;;;;;2.53;1.90;;;22.10;41.60;;;;;;10355908;28;20049;-52
2024/03/05 12:47:30;;;;;;;4.63;1.90;;;22.20;41.90;;;;;;10359465;28;20074;-55
2024/03/05 12:52:32;;;;;;;2.30;1.65;;;22.10;42.20;;;;;;10356611;28;20137;-53
2024/03/05 12:57:35;;;;;;;3.00;2.00;;;22.10;42.50;;;;;;10354110;28;20126;-49
2024/03/05 13:02:37;;;;;;;2.45;1.90;;;22.10;42.80;;;;;;10353139;28;20149;-53
2024/03/05 13:07:39;;;;;;;3.92;1.83;;;22.10;43.00;;;;;;10354188;28;20068;-49
2024/03/05 13:12:42;;;;;;;3.28;1.90;;;22.10;43.30;;;;;;10351918;28;20128;-50
2024/03/05 13:17:44;;;;;;;3.25;1.92;;;22.30;43.50;;;;;;10351691;28;20042;-49
2024/03/05 13:22:45;;;;;;;5.60;2.63;;;22.30;44.10;;;;;;10348448;28;20410;-51
2024/03/05 13:27:50;;;;;;;6.15;2.60;;;22.10;44.70;;;;;;10354442;28;20044;-52
2024/03/05 13:32:52;;;;;;;5.63;2.95;;;22.10;45.20;;;;;;10350164;28;20042;-50
2024/03/05 13:37:55;;;;;;;7.90;2.58;;;22.00;45.60;;;;;;10358211;28;20049;-47
2024/03/05 13:42:59;;;;;;;7.97;2.50;;;21.90;45.80;;;;;;10358557;28;20065;-48
2024/03/05 13:48:00;;;;;;;7.05;2.72;;;21.90;46.00;;;;;;10356379;28;20042;-47
2024/03/05 13:53:03;;;;;;;7.43;3.53;;;21.90;46.20;;;;;;10357196;28;20569;-47
2024/03/05 13:58:06;;;;;;;9.77;2.72;;;21.90;46.70;;;;;;10350548;28;20042;-47
2024/03/05 14:03:13;;;;;;;9.50;3.28;;;22.00;46.70;;;;;;10347119;28;20052;-51
2024/03/05 14:08:15;;;;;;;7.30;2.72;;;22.00;47.00;;;;;;10351154;28;20093;-48
2024/03/05 14:13:20;;;;;;;7.18;2.78;;;22.10;47.00;;;;;;10354412;28;20121;-49
2024/03/05 14:18:22;;;;;;;6.85;2.85;;;22.20;46.90;;;;;;10353110;28;20050;-50
2024/03/05 14:23:24;;;;;;;6.25;2.88;;;22.20;46.80;;;;;;10354439;28;20045;-49
2024/03/05 14:28:30;;;;;;;9.30;2.97;;;22.30;46.50;;;;;;10353387;28;20555;-50
2024/03/05 14:33:32;;;;;;;8.75;3.30;;;22.30;46.60;;;;;;10358780;28;20137;-49
2024/03/05 14:38:34;;;;;;;9.07;3.38;;;22.30;46.70;;;;;;10358009;28;20054;-49
2024/03/05 14:43:37;;;;;;;9.13;3.90;;;22.00;38.60;;;;;;10358476;28;20050;-47
2024/03/05 14:48:38;;;;;;;12.27;3.67;;;21.10;35.80;;;;;;10357992;28;20076;-52
2024/03/05 14:53:40;;;;;;;6.93;3.50;;;20.80;35.00;;;;;;10363657;28;20137;-49
2024/03/05 14:58:43;;;;;;;8.20;3.30;;;20.80;35.00;;;;;;10361778;28;20116;-49
2024/03/05 15:03:44;;;;;;;8.60;3.50;;;20.60;34.50;;;;;;10355556;28;20038;-52
2024/03/05 15:08:46;;;;;;;8.00;3.60;;;20.40;34.00;;;;;;10357187;28;20034;-53
2024/03/05 15:13:49;;;;;;;7.28;3.33;;;20.70;33.30;;;;;;10354140;28;20501;-49
2024/03/05 15:18:51;;;;;;;5.68;3.30;;;20.30;32.90;;;;;;10357364;28;20056;-47
2024/03/05 15:23:53;;;;;;;9.25;4.00;;;20.30;32.60;;;;;;10362060;28;20042;-47
2024/03/05 15:28:57;;;;;;;10.43;3.30;;;20.10;32.10;;;;;;10355041;28;20108;-49
2024/03/05 15:33:58;;;;;;;10.73;3.28;;;20.70;34.30;;;;;;10358091;28;20046;-51
2024/03/05 15:39:01;;;;;;;12.02;2.95;;;21.20;35.40;;;;;;10359013;28;20052;-51
2024/03/05 15:44:04;;;;;;;10.10;2.45;;;21.50;39.90;;;;;;10354182;28;20096;-48
2024/03/05 15:49:05;;;;;;;8.02;2.63;;;21.60;39.80;;;;;;10357738;28;20540;-52
2024/03/05 15:54:07;;;;;;;14.65;2.25;;;21.80;40.50;;;;;;10353810;28;20046;-49
2024/03/05 16:04:29;;;;;;;7.43;2.53;;;21.90;42.00;;;;;;10355218;28;20041;-50
2024/03/05 16:09:31;;;;;;;7.00;2.15;;;21.90;42.70;;;;;;10357867;28;20050;-49
2024/03/05 16:14:34;;;;;;;5.05;2.42;;;22.00;43.50;;;;;;10358701;28;20630;-50
2024/03/05 16:19:37;;;;;;;12.90;2.45;;;22.00;44.10;;;;;;10357097;28;20141;-52
2024/03/05 16:24:39;;;;;;;16.25;2.78;;;22.10;44.60;;;;;;10359153;28;20061;-64
2024/03/05 16:29:42;;;;;;;10.35;2.47;;;22.20;45.20;;;;;;10353582;28;20065;-51
2024/03/05 16:34:44;;;;;;;11.38;3.03;;;22.30;45.70;;;;;;10359613;28;20492;-55
2024/03/05 16:39:48;;;;;;;19.08;2.47;;;22.30;46.00;;;;;;10361701;28;20460;-62
2024/03/05 16:44:52;;;;;;;12.27;2.28;;;22.40;45.70;;;;;;10349378;28;20072;-59
2024/03/05 16:49:54;;;;;;;10.93;2.70;;;22.50;45.20;;;;;;10353555;28;20074;-58
2024/03/05 16:54:59;;;;;;;7.60;2.15;;;22.40;45.50;;;;;;10349078;28;20377;-54
2024/03/05 17:00:03;;;;;;;4.30;2.15;;;22.50;46.10;;;;;;10346873;28;20782;-61
2024/03/05 17:05:07;;;;;;;9.35;2.10;;;22.60;45.70;;;;;;10353004;28;20045;-60
2024/03/05 17:10:13;;;;;;;6.97;1.85;;;22.70;45.10;;;;;;10354887;28;20045;-62
2024/03/05 17:15:19;;;;;;;10.40;2.20;;;22.90;44.60;;;;;;10352066;28;20508;-61
2024/03/05 17:20:21;;;;;;;7.82;2.38;;;22.90;44.80;;;;;;10356454;28;20455;-60
2024/03/05 17:25:27;;;;;;;3.78;1.98;;;23.00;44.90;;;;;;10360586;28;20134;-60
2024/03/05 17:30:30;;;;;;;4.40;1.73;;;23.00;45.00;;;;;;10354253;28;20100;-59
2024/03/05 17:35:31;;;;;;;15.23;2.30;;;22.90;44.70;;;;;;10358191;28;20128;-59
2024/03/05 17:40:33;;;;;;;5.03;2.13;;;22.90;44.80;;;;;;10353338;28;20053;-61
2024/03/05 17:45:36;;;;;;;14.98;2.10;;;23.00;45.00;;;;;;10352031;28;20157;-58
2024/03/05 17:50:38;;;;;;;11.02;2.22;;;23.10;45.00;;;;;;10352669;28;20134;-59
2024/03/05 17:55:39;;;;;;;6.90;2.38;;;23.10;44.80;;;;;;10350628;28;20050;-58
2024/03/05 18:00:45;;;;;;;10.05;2.33;;;23.10;44.90;;;;;;10354687;28;20111;-61
2024/03/05 18:05:46;;;;;;;7.22;1.90;;;23.20;44.70;;;;;;10357086;28;20050;-61
2024/03/05 18:10:48;;;;;;;8.48;1.92;;;23.20;44.20;;;;;;10354688;28;20049;-60
2024/03/05 18:15:53;;;;;;;4.88;2.20;;;23.20;44.60;;;;;;10358898;28;20046;-60
2024/03/05 18:20:55;;;;;;;4.88;1.73;;;23.20;44.00;;;;;;10357497;28;20157;-59
2024/03/05 18:25:59;;;;;;;4.88;1.95;;;23.10;44.00;;;;;;10358047;28;20126;-59
2024/03/05 18:31:04;;;;;;;6.68;1.85;;;23.20;43.70;;;;;;10367137;28;20416;-59
2024/03/05 18:36:07;;;;;;;8.40;2.10;;;23.20;43.70;;;;;;10361988;28;20045;-60
2024/03/05 18:41:08;;;;;;;4.05;2.10;;;23.20;43.70;;;;;;10363108;28;20041;-60
2024/03/05 18:46:14;;;;;;;9.85;2.20;;;23.00;43.30;;;;;;10357656;28;21075;-60
2024/03/05 18:51:16;;;;;;;8.63;2.28;;;23.00;43.10;;;;;;10362393;28;20138;-60
2024/03/05 18:56:17;;;;;;;4.55;2.25;;;22.90;43.30;;;;;;10359014;28;20107;-60
2024/03/05 19:01:22;;;;;;;18.58;2.50;;;22.80;43.70;;;;;;10359061;28;20040;-61
2024/03/05 19:06:23;;;;;;;5.30;2.30;;;22.90;44.00;;;;;;10359095;28;20524;-59
2024/03/05 19:11:26;;;;;;;8.63;2.10;;;22.90;44.30;;;;;;10355966;28;20049;-62
2024/03/05 19:16:30;;;;;;;8.30;2.25;;;23.00;44.50;;;;;;10354349;28;20050;-58
2024/03/05 19:21:32;;;;;;;8.85;2.40;;;23.00;44.60;;;;;;10359310;28;20068;-61
2024/03/05 19:26:34;;;;;;;5.55;2.20;;;22.90;44.80;;;;;;10359350;28;20508;-62
2024/03/05 19:31:37;;;;;;;8.45;2.40;;;22.90;45.40;;;;;;10359707;28;20500;-62
2024/03/05 19:36:38;;;;;;;10.35;2.10;;;22.80;45.00;;;;;;10362282;28;20057;-63
2024/03/05 19:41:40;;;;;;;7.35;2.45;;;22.80;44.70;;;;;;10361967;28;20570;-61
2024/03/05 19:46:43;;;;;;;6.47;2.30;;;22.70;45.10;;;;;;10359701;28;20134;-62
2024/03/05 19:51:46;;;;;;;5.57;2.10;;;22.60;45.30;;;;;;10355423;28;20042;-62
2024/03/05 19:56:48;;;;;;;6.32;2.03;;;22.40;45.60;;;;;;10357853;28;20050;-62
2024/03/05 20:01:50;;;;;;;8.23;2.20;;;22.50;45.70;;;;;;10359654;28;20150;-62
2024/03/05 20:06:57;;;;;;;6.35;2.22;;;22.60;45.70;;;;;;10360166;28;20137;-62
2024/03/05 20:11:58;;;;;;;3.55;1.88;;;22.60;45.90;;;;;;10357285;28;20042;-65
2024/03/05 20:17:05;;;;;;;3.33;1.90;;;22.60;45.80;;;;;;10355042;28;20053;-62
2024/03/05 20:22:07;;;;;;;3.42;2.00;;;22.60;45.70;;;;;;10335564;28;20043;-62
2024/03/05 20:27:13;;;;;;;5.88;1.85;;;22.50;45.70;;;;;;10349941;28;20054;-62
2024/03/05 20:32:18;;;;;;;4.15;2.05;;;22.60;46.10;;;;;;10350787;28;20132;-62
2024/03/05 20:37:20;;;;;;;3.17;1.80;;;22.60;46.20;;;;;;10352682;28;20049;-62
2024/03/05 20:42:22;;;;;;;6.60;1.88;;;22.60;46.40;;;;;;10356944;28;20054;-62
2024/03/05 20:47:25;;;;;;;5.25;2.10;;;22.40;47.90;;;;;;10356653;28;21032;-61
2024/03/05 20:52:28;;;;;;;5.18;2.00;;;22.40;47.30;;;;;;10361982;28;20132;-60
2024/03/05 20:57:32;;;;;;;5.68;1.80;;;22.60;47.00;;;;;;10362768;28;20038;-58
2024/03/05 21:02:35;;;;;;;6.85;1.98;;;22.40;47.50;;;;;;10358062;28;20416;-59
2024/03/05 21:07:37;;;;;;;8.07;2.00;;;22.30;48.10;;;;;;10352305;28;20053;-57
2024/03/05 21:12:39;;;;;;;5.00;2.20;;;22.10;48.20;;;;;;10359056;28;20137;-58
2024/03/05 21:17:42;;;;;;;2.97;1.90;;;21.90;48.50;;;;;;10355118;28;20080;-56
2024/03/05 21:22:44;;;;;;;7.25;1.90;;;22.00;48.40;;;;;;10357516;28;20050;-57
2024/03/05 21:27:46;;;;;;;4.05;2.00;;;21.90;48.70;;;;;;10354249;28;20507;-57
2024/03/05 21:32:49;;;;;;;5.20;1.90;;;22.00;48.50;;;;;;10353162;28;20526;-55
2024/03/05 21:37:52;;;;;;;1.95;1.50;;;22.00;48.50;;;;;;10356695;28;20124;-57
2024/03/05 21:42:53;;;;;;;3.47;1.90;;;21.90;48.60;;;;;;10358015;28;20058;-56
2024/03/05 21:47:56;;;;;;;3.80;1.83;;;21.80;48.90;;;;;;10352844;28;20133;-58
2024/03/05 21:52:58;;;;;;;6.50;1.60;;;21.70;49.20;;;;;;10356960;28;20143;-59
2024/03/05 21:57:59;;;;;;;3.75;1.80;;;21.80;49.30;;;;;;10359022;28;20539;-58
2024/03/05 22:03:03;;;;;;;3.00;1.60;;;21.70;49.30;;;;;;10366911;28;20132;-57
2024/03/05 22:08:06;;;;;;;4.63;1.58;;;21.70;49.50;;;;;;10366028;28;20049;-58
2024/03/05 22:13:07;;;;;;;3.92;1.48;;;21.60;49.60;;;;;;10343562;28;20138;-58
2024/03/05 22:18:14;;;;;;;5.22;1.70;;;21.70;49.60;;;;;;10316536;28;20766;-58
2024/03/05 22:23:16;;;;;;;9.32;2.22;;;21.80;49.70;;;;;;10356992;28;20093;-55
2024/03/05 22:28:18;;;;;;;11.13;2.20;;;21.60;49.60;;;;;;10366682;28;20060;-61
2024/03/05 22:33:22;;;;;;;14.75;2.10;;;21.50;50.00;;;;;;10369561;28;20551;-60
2024/03/05 22:38:23;;;;;;;3.95;1.77;;;21.50;50.10;;;;;;10366685;28;20053;-58
2024/03/05 22:43:25;;;;;;;7.03;2.10;;;21.50;50.10;;;;;;10363848;28;20146;-57
2024/03/05 22:48:29;;;;;;;5.00;1.92;;;21.50;50.10;;;;;;10360553;28;20740;-60
2024/03/05 22:53:30;;;;;;;12.02;2.10;;;21.40;50.10;;;;;;10362018;28;20053;-60
2024/03/05 22:58:32;;;;;;;8.00;1.83;;;21.40;50.20;;;;;;10353542;28;20484;-62
2024/03/05 23:03:35;;;;;;;7.15;1.90;;;21.30;50.40;;;;;;10355755;28;20140;-62
2024/03/05 23:08:36;;;;;;;7.10;2.20;;;21.40;50.30;;;;;;10360034;28;20046;-60
2024/03/05 23:13:38;;;;;;;6.60;1.70;;;21.20;50.70;;;;;;10360358;28;20570;-62
2024/03/05 23:18:41;;;;;;;3.25;1.65;;;21.00;51.00;;;;;;10362686;28;20045;-61
2024/03/05 23:23:44;;;;;;;4.38;1.65;;;21.00;51.20;;;;;;10363147;28;20050;-61
2024/03/05 23:28:48;;;;;;;3.80;1.55;;;21.20;50.90;;;;;;10361760;28;20416;-61
2024/03/05 23:33:51;;;;;;;8.95;1.98;;;21.10;50.90;;;;;;10358212;28;20516;-61
2024/03/05 23:38:52;;;;;;;4.72;1.75;;;21.10;51.20;;;;;;10356664;28;20083;-61
2024/03/05 23:43:54;;;;;;;2.38;1.50;;;21.00;51.20;;;;;;10362552;28;20133;-61
2024/03/05 23:48:57;;;;;;;2.78;1.60;;;20.90;51.30;;;;;;10362386;28;20140;-58
2024/03/05 23:53:59;;;;;;;3.97;1.70;;;21.00;51.20;;;;;;10361103;28;20133;-61
2024/03/05 23:59:00;;;;;;;2.53;1.73;;;20.90;51.50;;;;;;10357538;28;20499;-61
